createdAt,value
2022-10-24T00:00:05.309Z,101017.48
2022-10-24T00:02:58.272Z,101017.36
2022-10-24T00:05:31.264Z,101016.23
2022-10-24T00:08:04.950Z,101014.73
2022-10-24T00:10:37.656Z,101012.59
2022-10-24T00:13:10.271Z,101012.97
2022-10-24T00:15:46.222Z,101011.13
2022-10-24T00:18:21.210Z,101011.49
2022-10-24T00:20:53.752Z,101008.52
2022-10-24T00:23:26.374Z,101009.42
2022-10-24T00:26:02.324Z,101005.33
2022-10-24T00:28:37.281Z,100990.04
2022-10-24T00:31:14.255Z,100997.23
2022-10-24T00:33:47.071Z,100994.54
2022-10-24T00:36:24.126Z,100992.17
2022-10-24T00:38:56.960Z,100985.46
2022-10-24T00:41:40.169Z,100982.23
2022-10-24T00:44:28.336Z,100982.31
2022-10-24T00:47:10.021Z,100986.14
2022-10-24T00:50:04.769Z,100985.34
2022-10-24T00:52:44.673Z,100986.23
2022-10-24T00:55:18.158Z,100988.57
2022-10-24T00:57:57.251Z,100986.80
2022-10-24T01:00:33.577Z,100985.84
2022-10-24T01:03:06.276Z,100990.35
2022-10-24T01:05:48.321Z,100989.23
2022-10-24T01:08:19.591Z,100985.00
2022-10-24T01:11:25.540Z,100991.50
2022-10-24T01:14:08.879Z,100990.50
2022-10-24T01:16:50.617Z,100981.20
2022-10-24T01:19:53.921Z,100976.88
2022-10-24T01:22:34.422Z,100975.69
2022-10-24T01:25:20.731Z,100970.61
2022-10-24T01:28:09.691Z,100972.16
2022-10-24T01:30:57.951Z,100986.42
2022-10-24T01:33:36.229Z,100986.83
2022-10-24T01:36:18.982Z,100981.53
2022-10-24T01:39:03.970Z,100992.35
2022-10-24T01:41:37.337Z,100992.57
2022-10-24T01:44:18.290Z,100987.76
2022-10-24T01:47:02.169Z,100999.03
2022-10-24T01:49:38.587Z,101002.59
2022-10-24T01:54:53.042Z,101010.46
2022-10-24T01:57:36.696Z,101001.55
2022-10-24T02:00:12.004Z,100998.13
2022-10-24T02:02:55.743Z,101004.18
2022-10-24T02:05:51.266Z,101001.23
2022-10-24T02:08:30.326Z,100991.23
2022-10-24T02:11:07.615Z,101005.36
2022-10-24T02:13:59.812Z,101006.80
2022-10-24T02:16:33.093Z,101004.33
2022-10-24T02:19:07.130Z,101002.05
2022-10-24T02:22:18.627Z,100996.82
2022-10-24T02:24:59.449Z,100990.00
2022-10-24T02:27:49.806Z,100988.23
2022-10-24T02:30:28.585Z,100990.69
2022-10-24T02:33:02.206Z,100992.30
2022-10-24T02:35:38.851Z,100996.75
2022-10-24T02:38:23.094Z,100994.04
2022-10-24T02:40:57.155Z,100983.73
2022-10-24T02:43:31.145Z,100990.52
2022-10-24T02:46:05.054Z,100989.36
2022-10-24T02:48:44.884Z,100992.80
2022-10-24T02:51:19.688Z,100988.50
2022-10-24T02:53:53.373Z,100987.80
2022-10-24T02:56:26.184Z,100986.58
2022-10-24T02:58:58.880Z,100985.32
2022-10-24T03:01:35.353Z,100986.46
2022-10-24T03:04:07.945Z,100981.65
2022-10-24T03:06:41.294Z,100984.48
2022-10-24T03:09:14.033Z,100984.56
2022-10-24T03:11:48.036Z,100983.99
2022-10-24T03:14:20.508Z,100976.63
2022-10-24T03:16:53.157Z,100972.30
2022-10-24T03:19:25.449Z,100972.89
2022-10-24T03:21:58.011Z,100969.50
2022-10-24T03:24:43.451Z,100971.46
2022-10-24T03:27:19.705Z,100975.43
2022-10-24T03:29:52.577Z,100968.17
2022-10-24T03:35:04.598Z,100968.63
2022-10-24T03:37:37.131Z,100965.30
2022-10-24T03:40:10.298Z,100963.46
2022-10-24T03:42:45.323Z,100958.92
2022-10-24T03:45:18.846Z,100956.90
2022-10-24T03:47:52.004Z,100958.63
2022-10-24T03:50:24.669Z,100960.16
2022-10-24T03:52:58.060Z,100953.76
2022-10-24T03:55:32.086Z,100957.90
2022-10-24T03:58:08.735Z,100951.19
2022-10-24T04:00:45.445Z,100941.35
2022-10-24T04:03:17.986Z,100938.09
2022-10-24T04:05:50.479Z,100947.21
2022-10-24T04:08:23.035Z,100951.21
2022-10-24T04:10:56.145Z,100939.30
2022-10-24T04:13:33.445Z,100943.09
2022-10-24T04:16:06.139Z,100941.23
2022-10-24T04:18:41.726Z,100943.48
2022-10-24T04:21:21.845Z,100942.59
2022-10-24T04:23:55.056Z,100939.39
2022-10-24T04:26:27.885Z,100939.73
2022-10-24T04:29:05.808Z,100933.99
2022-10-24T04:31:38.664Z,100926.95
2022-10-24T04:34:11.568Z,100926.22
2022-10-24T04:36:44.003Z,100922.51
2022-10-24T04:39:16.834Z,100918.95
2022-10-24T04:41:49.699Z,100918.27
2022-10-24T04:44:22.537Z,100918.79
2022-10-24T04:46:56.006Z,100925.08
2022-10-24T04:49:29.094Z,100917.44
2022-10-24T04:52:03.610Z,100929.79
2022-10-24T04:54:37.266Z,100933.35
2022-10-24T04:57:10.332Z,100938.09
2022-10-24T04:59:42.907Z,100943.05
2022-10-24T05:02:16.343Z,100942.82
2022-10-24T05:04:49.514Z,100945.54
2022-10-24T05:07:26.169Z,100949.39
2022-10-24T05:10:12.169Z,100951.64
2022-10-24T05:12:45.280Z,100948.88
2022-10-24T05:15:19.242Z,100948.61
2022-10-24T05:17:51.637Z,100953.12
2022-10-24T05:20:24.184Z,100957.14
2022-10-24T05:22:57.532Z,100954.91
2022-10-24T05:25:30.445Z,100943.28
2022-10-24T05:28:03.942Z,100956.57
2022-10-24T05:30:36.965Z,100968.66
2022-10-24T05:33:09.964Z,100978.47
2022-10-24T05:35:44.219Z,100983.81
2022-10-24T05:38:17.578Z,100978.23
2022-10-24T05:40:52.098Z,100985.05
2022-10-24T05:43:25.001Z,100984.55
2022-10-24T05:45:58.167Z,100996.20
2022-10-24T05:48:31.064Z,101006.91
2022-10-24T05:51:03.832Z,101001.17
2022-10-24T05:53:36.702Z,101002.83
2022-10-24T05:56:13.975Z,101007.66
2022-10-24T05:58:46.977Z,101012.02
2022-10-24T06:01:20.524Z,101011.42
2022-10-24T06:03:57.149Z,101013.41
2022-10-24T06:06:29.991Z,101010.38
2022-10-24T06:09:02.830Z,101010.00
2022-10-24T06:11:36.288Z,101012.67
2022-10-24T06:14:09.516Z,101010.38
2022-10-24T06:16:42.188Z,101012.63
2022-10-24T06:19:14.463Z,101014.04
2022-10-24T06:21:47.006Z,101012.59
2022-10-24T06:24:24.221Z,101010.14
2022-10-24T06:26:57.142Z,101007.27
2022-10-24T06:29:30.025Z,101002.80
2022-10-24T06:32:03.265Z,100990.52
2022-10-24T06:34:36.967Z,100997.77
2022-10-24T06:37:10.134Z,100997.91
2022-10-24T06:39:43.290Z,100995.31
2022-10-24T06:42:16.282Z,100992.29
2022-10-24T06:44:49.382Z,100989.35
2022-10-24T06:47:22.426Z,100987.38
2022-10-24T06:49:59.258Z,100988.92
2022-10-24T06:52:32.218Z,100989.35
2022-10-24T06:55:05.980Z,100987.98
2022-10-24T06:57:39.190Z,100984.75
2022-10-24T07:00:12.556Z,100984.52
2022-10-24T07:02:45.783Z,100980.27
2022-10-24T07:05:19.156Z,100969.86
2022-10-24T07:07:52.375Z,100967.86
2022-10-24T07:10:25.490Z,100970.27
2022-10-24T07:12:58.434Z,100966.09
2022-10-24T07:15:31.206Z,100968.68
2022-10-24T07:18:04.103Z,100968.69
2022-10-24T07:23:15.996Z,100965.00
2022-10-24T07:25:49.013Z,100955.55
2022-10-24T07:28:22.074Z,100951.11
2022-10-24T07:30:55.285Z,100952.73
2022-10-24T07:33:28.890Z,100942.58
2022-10-24T07:36:02.934Z,100945.30
2022-10-24T07:38:36.570Z,100940.30
2022-10-24T07:41:09.883Z,100939.52
2022-10-24T07:43:43.015Z,100945.55
2022-10-24T07:46:18.227Z,100947.98
2022-10-24T07:48:55.371Z,100937.73
2022-10-24T07:51:32.288Z,100948.34
2022-10-24T07:54:05.490Z,100951.81
2022-10-24T07:56:38.527Z,100955.84
2022-10-24T07:59:29.794Z,100954.04
2022-10-24T08:02:06.252Z,100952.29
2022-10-24T08:04:39.734Z,100948.23
2022-10-24T08:07:16.860Z,100947.85
2022-10-24T08:09:51.817Z,100949.48
2022-10-24T08:12:24.786Z,100941.27
2022-10-24T08:14:57.878Z,100940.16
2022-10-24T08:17:30.905Z,100938.87
2022-10-24T08:20:03.599Z,100943.87
2022-10-24T08:22:36.384Z,100936.79
2022-10-24T08:25:10.647Z,100938.48
2022-10-24T08:27:44.523Z,100938.55
2022-10-24T08:30:18.105Z,100938.13
2022-10-24T08:32:50.751Z,100940.19
2022-10-24T08:35:23.819Z,100936.70
2022-10-24T08:37:56.736Z,100933.23
2022-10-24T08:40:30.119Z,100927.30
2022-10-24T08:43:02.912Z,100924.63
2022-10-24T08:46:09.293Z,100928.48
2022-10-24T08:48:51.842Z,100924.86
2022-10-24T08:51:44.558Z,100926.23
2022-10-24T08:54:23.157Z,100924.84
2022-10-24T08:57:00.828Z,100923.27
2022-10-24T08:59:38.469Z,100921.41
2022-10-24T09:02:13.530Z,100918.90
2022-10-24T09:05:02.102Z,100923.38
2022-10-24T09:07:34.632Z,100927.09
2022-10-24T09:10:55.370Z,100929.77
2022-10-24T09:13:30.334Z,100927.64
2022-10-24T09:16:02.931Z,100923.91
2022-10-24T09:18:43.794Z,100916.31
2022-10-24T09:21:17.816Z,100912.96
2022-10-24T09:23:52.173Z,100912.63
2022-10-24T09:26:34.903Z,100904.73
2022-10-24T09:29:07.702Z,100895.82
2022-10-24T09:31:43.525Z,100893.90
2022-10-24T09:34:16.634Z,100887.04
2022-10-24T09:36:49.475Z,100878.65
2022-10-24T09:39:33.196Z,100887.37
2022-10-24T09:42:06.963Z,100883.34
2022-10-24T09:44:44.285Z,100879.63
2022-10-24T09:47:31.495Z,100870.34
2022-10-24T09:50:04.535Z,100870.21
2022-10-24T09:52:37.166Z,100855.33
2022-10-24T09:55:22.162Z,100865.73
2022-10-24T09:58:00.904Z,100847.67
2022-10-24T10:00:37.121Z,100852.63
2022-10-24T10:03:24.125Z,100851.55
2022-10-24T10:05:59.247Z,100852.38
2022-10-24T10:08:37.494Z,100848.25
2022-10-24T10:11:15.650Z,100849.17
2022-10-24T10:13:56.107Z,100846.95
2022-10-24T10:16:32.392Z,100845.95
2022-10-24T10:19:20.378Z,100842.16
2022-10-24T10:22:02.977Z,100843.67
2022-10-24T10:24:43.870Z,100832.88
2022-10-24T10:27:36.113Z,100837.43
2022-10-24T10:30:22.240Z,100836.16
2022-10-24T10:33:07.137Z,100834.36
2022-10-24T10:35:47.730Z,100833.77
2022-10-24T10:38:43.540Z,100831.65
2022-10-24T10:41:33.410Z,100827.14
2022-10-24T10:44:41.721Z,100819.27
2022-10-24T10:47:27.712Z,100818.19
2022-10-24T10:50:02.091Z,100815.48
2022-10-24T10:52:46.457Z,100805.89
2022-10-24T10:55:24.834Z,100807.29
2022-10-24T10:58:32.382Z,100795.46
2022-10-24T11:01:30.165Z,100801.23
2022-10-24T11:04:38.941Z,100797.46
2022-10-24T11:07:38.697Z,100795.70
2022-10-24T11:10:25.965Z,100794.08
2022-10-24T11:12:59.987Z,100789.86
2022-10-24T11:15:44.715Z,100781.33
2022-10-24T11:18:23.813Z,100778.77
2022-10-24T11:21:11.337Z,100784.13
2022-10-24T11:23:53.796Z,100778.68
2022-10-24T11:26:44.175Z,100772.23
2022-10-24T11:29:54.409Z,100764.67
2022-10-24T11:32:38.510Z,100766.70
2022-10-24T11:35:33.693Z,100755.89
2022-10-24T11:38:23.515Z,100753.77
2022-10-24T11:41:03.184Z,100751.48
2022-10-24T11:43:43.944Z,100749.30
2022-10-24T11:46:31.325Z,100744.91
2022-10-24T11:49:31.260Z,100744.02
2022-10-24T11:52:33.127Z,100740.81
2022-10-24T11:55:17.642Z,100740.27
2022-10-24T11:57:54.503Z,100730.39
2022-10-24T12:00:57.681Z,100725.23
2022-10-24T12:04:13.679Z,100715.06
2022-10-24T12:06:54.766Z,100705.41
2022-10-24T12:09:51.082Z,100700.42
2022-10-24T12:12:51.475Z,100700.88
2022-10-24T12:15:46.930Z,100700.64
2022-10-24T12:18:41.370Z,100705.98
2022-10-24T12:21:21.043Z,100704.77
2022-10-24T12:24:03.877Z,100703.25
2022-10-24T12:26:37.654Z,100696.16
2022-10-24T12:29:25.666Z,100690.69
2022-10-24T12:31:58.221Z,100690.48
2022-10-24T12:34:30.289Z,100684.39
2022-10-24T12:37:11.696Z,100681.95
2022-10-24T12:39:47.586Z,100676.57
2022-10-24T12:42:22.873Z,100676.84
2022-10-24T12:45:47.063Z,100675.67
2022-10-24T12:48:40.484Z,100671.40
2022-10-24T12:51:30.523Z,100663.77
2022-10-24T12:54:05.627Z,100665.09
2022-10-24T12:56:41.400Z,100658.74
2022-10-24T12:59:24.456Z,100654.80
2022-10-24T13:02:17.489Z,100652.16
2022-10-24T13:05:20.859Z,100646.15
2022-10-24T13:08:35.923Z,100646.06
2022-10-24T13:11:52.242Z,100641.53
2022-10-24T13:14:47.240Z,100633.02
2022-10-24T13:17:44.578Z,100633.05
2022-10-24T13:20:28.092Z,100637.17
2022-10-24T13:23:25.511Z,100636.50
2022-10-24T13:26:00.522Z,100636.15
2022-10-24T13:28:39.912Z,100631.12
2022-10-24T13:31:12.371Z,100630.94
2022-10-24T13:33:50.163Z,100636.94
2022-10-24T13:36:28.586Z,100630.23
2022-10-24T13:39:03.892Z,100635.02
2022-10-24T13:41:37.766Z,100629.14
2022-10-24T13:44:39.721Z,100626.58
2022-10-24T13:47:35.503Z,100629.34
2022-10-24T13:50:24.099Z,100628.56
2022-10-24T13:53:01.088Z,100627.34
2022-10-24T13:55:48.706Z,100617.55
2022-10-24T13:58:25.922Z,100628.36
2022-10-24T14:01:03.356Z,100628.05
2022-10-24T14:03:40.104Z,100631.27
2022-10-24T14:06:17.378Z,100621.92
2022-10-24T14:09:04.221Z,100627.33
2022-10-24T14:11:51.160Z,100633.88
2022-10-24T14:14:40.467Z,100633.15
2022-10-24T14:17:27.274Z,100627.63
2022-10-24T14:20:21.565Z,100631.04
2022-10-24T14:22:54.988Z,100631.35
2022-10-24T14:25:40.316Z,100632.64
2022-10-24T14:28:20.904Z,100631.27
2022-10-24T14:31:02.271Z,100633.39
2022-10-24T14:33:55.686Z,100635.30
2022-10-24T14:36:33.385Z,100635.27
2022-10-24T14:39:07.076Z,100627.85
2022-10-24T14:41:43.837Z,100633.98
2022-10-24T14:44:20.033Z,100631.51
2022-10-24T14:47:21.475Z,100634.22
2022-10-24T14:49:55.054Z,100637.25
2022-10-24T14:52:32.718Z,100637.13
2022-10-24T14:55:22.041Z,100635.36
2022-10-24T14:57:57.376Z,100642.27
2022-10-24T15:00:38.243Z,100647.55
2022-10-24T15:03:13.020Z,100636.42
2022-10-24T15:05:56.576Z,100644.52
2022-10-24T15:08:38.578Z,100629.34
2022-10-24T15:11:31.857Z,100636.38
2022-10-24T15:14:07.009Z,100639.27
2022-10-24T15:16:42.728Z,100642.85
2022-10-24T15:19:22.197Z,100647.42
2022-10-24T15:21:55.078Z,100649.20
2022-10-24T15:24:28.820Z,100647.34
2022-10-24T15:27:14.762Z,100649.85
2022-10-24T15:29:47.403Z,100646.73
2022-10-24T15:32:20.062Z,100649.48
2022-10-24T15:34:56.515Z,100651.30
2022-10-24T15:37:29.247Z,100645.59
2022-10-24T15:40:06.376Z,100640.83
2022-10-24T15:42:39.616Z,100638.30
2022-10-24T15:45:19.917Z,100642.27
2022-10-24T15:47:53.498Z,100643.15
2022-10-24T15:50:26.777Z,100641.11
2022-10-24T15:53:00.818Z,100645.73
2022-10-24T15:55:33.900Z,100635.37
2022-10-24T15:58:06.445Z,100642.54
2022-10-24T16:00:40.411Z,100632.86
2022-10-24T16:03:18.730Z,100636.38
2022-10-24T16:06:00.129Z,100633.09
2022-10-24T16:08:33.203Z,100633.90
2022-10-24T16:11:09.248Z,100631.52
2022-10-24T16:13:43.130Z,100633.76
2022-10-24T16:16:16.085Z,100639.34
2022-10-24T16:18:49.070Z,100642.05
2022-10-24T16:21:24.265Z,100642.41
2022-10-24T16:23:57.289Z,100650.41
2022-10-24T16:26:30.270Z,100650.12
2022-10-24T16:29:03.133Z,100647.47
2022-10-24T16:31:35.776Z,100647.02
2022-10-24T16:34:09.341Z,100636.10
2022-10-24T16:36:42.210Z,100640.89
2022-10-24T16:39:16.889Z,100633.16
2022-10-24T16:41:49.498Z,100641.36
2022-10-24T16:44:22.386Z,100641.63
2022-10-24T16:46:55.977Z,100643.49
2022-10-24T16:49:28.851Z,100635.27
2022-10-24T16:52:01.563Z,100642.32
2022-10-24T16:54:34.135Z,100644.70
2022-10-24T16:57:06.759Z,100646.89
2022-10-24T16:59:39.967Z,100651.21
2022-10-24T17:02:15.278Z,100645.73
2022-10-24T17:04:48.202Z,100654.08
2022-10-24T17:07:21.038Z,100660.13
2022-10-24T17:09:53.651Z,100651.43
2022-10-24T17:12:27.916Z,100654.88
2022-10-24T17:15:01.122Z,100656.30
2022-10-24T17:17:34.354Z,100653.91
2022-10-24T17:20:09.347Z,100652.23
2022-10-24T17:22:44.851Z,100653.17
2022-10-24T17:25:22.846Z,100650.42
2022-10-24T17:27:56.121Z,100651.73
2022-10-24T17:30:30.716Z,100647.33
2022-10-24T17:33:03.796Z,100644.41
2022-10-24T17:35:42.426Z,100645.67
2022-10-24T17:38:28.544Z,100640.84
2022-10-24T17:41:07.640Z,100632.56
2022-10-24T17:43:40.223Z,100631.02
2022-10-24T17:46:15.183Z,100624.98
2022-10-24T17:48:47.942Z,100624.39
2022-10-24T17:51:24.263Z,100615.06
2022-10-24T17:53:56.760Z,100618.20
2022-10-24T17:56:29.790Z,100614.33
2022-10-24T17:59:03.049Z,100625.50
2022-10-24T18:01:37.046Z,100619.90
2022-10-24T18:04:10.021Z,100616.73
2022-10-24T18:06:43.496Z,100615.11
2022-10-24T18:09:16.238Z,100608.70
2022-10-24T18:11:49.345Z,100606.23
2022-10-24T18:14:22.391Z,100604.83
2022-10-24T18:16:55.317Z,100598.56
2022-10-24T18:19:27.985Z,100599.64
2022-10-24T18:22:00.808Z,100597.58
2022-10-24T18:24:33.152Z,100588.95
2022-10-24T18:27:05.581Z,100589.04
2022-10-24T18:32:15.085Z,100597.63
2022-10-24T18:34:48.344Z,100593.92
2022-10-24T18:37:21.072Z,100591.67
2022-10-24T18:39:54.137Z,100588.80
2022-10-24T18:42:44.538Z,100585.31
2022-10-24T18:45:26.176Z,100587.72
2022-10-24T18:47:58.818Z,100593.63
2022-10-24T18:50:31.493Z,100593.99
2022-10-24T18:53:22.466Z,100586.80
2022-10-24T18:55:55.536Z,100582.77
2022-10-24T18:58:27.983Z,100581.15
2022-10-24T19:01:02.212Z,100584.52
2022-10-24T19:03:39.059Z,100588.05
2022-10-24T19:06:29.928Z,100587.43
2022-10-24T19:09:02.522Z,100589.46
2022-10-24T19:11:35.356Z,100591.89
2022-10-24T19:14:08.252Z,100587.27
2022-10-24T19:16:46.360Z,100577.66
2022-10-24T19:19:27.918Z,100584.98
2022-10-24T19:22:00.820Z,100581.84
2022-10-24T19:24:34.767Z,100578.98
2022-10-24T19:27:07.824Z,100578.13
2022-10-24T19:29:40.465Z,100572.69
2022-10-24T19:32:13.449Z,100578.81
2022-10-24T19:34:46.487Z,100583.46
2022-10-24T19:37:19.816Z,100576.65
2022-10-24T19:39:52.517Z,100580.48
2022-10-24T19:42:25.210Z,100581.64
2022-10-24T19:44:58.268Z,100587.65
2022-10-24T19:47:31.308Z,100585.10
2022-10-24T19:50:04.247Z,100589.33
2022-10-24T19:52:36.859Z,100586.23
2022-10-24T19:55:10.141Z,100591.31
2022-10-24T19:57:42.416Z,100587.15
2022-10-24T20:00:15.373Z,100588.23
2022-10-24T20:02:47.993Z,100582.70
2022-10-24T20:05:20.617Z,100583.28
2022-10-24T20:07:53.149Z,100580.81
2022-10-24T20:10:25.707Z,100579.60
2022-10-24T20:12:58.258Z,100577.27
2022-10-24T20:15:31.132Z,100582.30
2022-10-24T20:18:04.611Z,100580.42
2022-10-24T20:20:38.213Z,100578.00
2022-10-24T20:23:11.027Z,100578.45
2022-10-24T20:25:43.660Z,100572.92
2022-10-24T20:28:16.434Z,100565.59
2022-10-24T20:30:50.160Z,100563.92
2022-10-24T20:33:22.958Z,100567.90
2022-10-24T20:35:59.770Z,100567.98
2022-10-24T20:38:35.780Z,100570.02
2022-10-24T20:41:08.569Z,100565.10
2022-10-24T20:43:41.303Z,100565.52
2022-10-24T20:46:14.307Z,100567.60
2022-10-24T20:48:46.921Z,100563.66
2022-10-24T20:51:20.859Z,100564.08
2022-10-24T20:53:53.553Z,100564.33
2022-10-24T20:56:27.287Z,100565.74
2022-10-24T20:58:59.852Z,100569.65
2022-10-24T21:01:32.827Z,100571.18
2022-10-24T21:04:05.551Z,100567.27
2022-10-24T21:06:38.180Z,100565.98
2022-10-24T21:09:10.696Z,100565.63
2022-10-24T21:11:42.991Z,100566.08
2022-10-24T21:14:17.712Z,100566.59
2022-10-24T21:16:51.165Z,100563.91
2022-10-24T21:19:24.077Z,100562.82
2022-10-24T21:21:57.009Z,100554.99
2022-10-24T21:24:29.855Z,100554.02
2022-10-24T21:27:03.076Z,100540.58
2022-10-24T21:29:36.094Z,100537.89
2022-10-24T21:32:09.492Z,100545.02
2022-10-24T21:34:42.193Z,100541.36
2022-10-24T21:37:14.771Z,100536.71
2022-10-24T21:39:47.185Z,100536.52
2022-10-24T21:42:19.844Z,100543.65
2022-10-24T21:44:52.688Z,100547.30
2022-10-24T21:47:25.056Z,100542.29
2022-10-24T21:49:57.414Z,100553.02
2022-10-24T21:52:30.023Z,100560.23
2022-10-24T21:55:02.624Z,100563.67
2022-10-24T21:57:35.107Z,100566.91
2022-10-24T22:00:08.511Z,100568.95
2022-10-24T22:02:41.088Z,100569.54
2022-10-24T22:05:13.909Z,100564.83
2022-10-24T22:07:48.906Z,100565.92
2022-10-24T22:10:22.200Z,100562.37
2022-10-24T22:12:54.591Z,100568.40
2022-10-24T22:15:27.013Z,100562.30
2022-10-24T22:17:59.414Z,100566.09
2022-10-24T22:20:32.001Z,100562.90
2022-10-24T22:23:04.508Z,100569.48
2022-10-24T22:25:37.646Z,100563.80
2022-10-24T22:28:10.530Z,100561.24
2022-10-24T22:30:44.140Z,100564.95
2022-10-24T22:33:37.481Z,100558.77
2022-10-24T22:36:42.174Z,100559.39
2022-10-24T22:39:22.746Z,100558.16
2022-10-24T22:41:55.721Z,100558.52
2022-10-24T22:44:28.431Z,100561.40
2022-10-24T22:47:34.193Z,100560.14
2022-10-24T22:50:18.503Z,100561.18
2022-10-24T22:52:54.331Z,100563.21
2022-10-24T22:55:36.322Z,100557.73
2022-10-24T22:58:09.421Z,100566.77
2022-10-24T23:00:42.141Z,100568.80
2022-10-24T23:03:43.423Z,100560.46
2022-10-24T23:06:26.078Z,100566.61
2022-10-24T23:08:58.555Z,100568.51
2022-10-24T23:11:31.455Z,100556.50
2022-10-24T23:14:04.613Z,100551.69
2022-10-24T23:16:44.422Z,100556.91
2022-10-24T23:19:22.637Z,100559.86
2022-10-24T23:21:59.150Z,100560.85
2022-10-24T23:24:31.786Z,100561.20
2022-10-24T23:27:15.852Z,100556.17
2022-10-24T23:29:49.232Z,100542.36
2022-10-24T23:32:27.809Z,100532.55
2022-10-24T23:35:04.352Z,100527.58
2022-10-24T23:37:39.462Z,100530.09
2022-10-24T23:40:20.888Z,100527.23
2022-10-24T23:42:54.569Z,100517.36
2022-10-24T23:45:30.006Z,100508.77
2022-10-24T23:48:10.891Z,100511.70
2022-10-24T23:51:05.164Z,100511.00
2022-10-24T23:53:50.444Z,100511.04
2022-10-24T23:56:25.230Z,100510.30
2022-10-24T23:58:58.499Z,100507.90
